sensor_id;sensor_type;location;lat;lon;timestamp;pressure;altitude;pressure_sealevel;temperature;humidity
49813;BME280;35706;52.100;5.056;2023-05-29T00:00:42;102386.72;;;16.37;59.37
49813;BME280;35706;52.100;5.056;2023-05-29T00:01:42;102383.66;;;16.01;60.67
49813;BME280;35706;52.100;5.056;2023-05-29T00:02:42;102375.41;;;15.94;61.01
49813;BME280;35706;52.100;5.056;2023-05-29T00:03:44;102383.56;;;16.12;60.89
49813;BME280;35706;52.100;5.056;2023-05-29T00:04:45;102383.34;;;16.35;60.04
49813;BME280;35706;52.100;5.056;2023-05-29T00:05:45;102385.03;;;15.95;60.45
49813;BME280;35706;52.100;5.056;2023-05-29T00:06:45;102381.78;;;16.22;60.20
49813;BME280;35706;52.100;5.056;2023-05-29T00:07:45;102379.84;;;16.24;60.03
49813;BME280;35706;52.100;5.056;2023-05-29T00:08:46;102385.06;;;16.55;59.44
49813;BME280;35706;52.100;5.056;2023-05-29T00:09:46;102384.66;;;16.69;59.08
49813;BME280;35706;52.100;5.056;2023-05-29T00:10:46;102378.69;;;16.87;57.96
49813;BME280;35706;52.100;5.056;2023-05-29T00:11:47;102383.34;;;16.44;59.07
49813;BME280;35706;52.100;5.056;2023-05-29T00:12:50;102374.84;;;16.41;59.37
49813;BME280;35706;52.100;5.056;2023-05-29T00:13:51;102374.88;;;16.70;58.69
49813;BME280;35706;52.100;5.056;2023-05-29T00:14:52;102376.97;;;16.66;58.80
49813;BME280;35706;52.100;5.056;2023-05-29T00:15:52;102381.16;;;16.79;58.15
49813;BME280;35706;52.100;5.056;2023-05-29T00:16:52;102374.19;;;16.97;57.85
49813;BME280;35706;52.100;5.056;2023-05-29T00:17:53;102371.84;;;16.94;57.84
49813;BME280;35706;52.100;5.056;2023-05-29T00:18:53;102367.91;;;16.88;57.47
49813;BME280;35706;52.100;5.056;2023-05-29T00:19:53;102379.41;;;16.89;57.53
49813;BME280;35706;52.100;5.056;2023-05-29T00:20:54;102373.38;;;16.87;57.67
49813;BME280;35706;52.100;5.056;2023-05-29T00:21:55;102377.00;;;16.86;57.79
49813;BME280;35706;52.100;5.056;2023-05-29T00:22:55;102365.78;;;16.53;58.47
49813;BME280;35706;52.100;5.056;2023-05-29T00:23:55;102372.63;;;16.65;58.08
49813;BME280;35706;52.100;5.056;2023-05-29T00:24:56;102375.88;;;16.79;57.88
49813;BME280;35706;52.100;5.056;2023-05-29T00:25:56;102372.25;;;16.89;57.26
49813;BME280;35706;52.100;5.056;2023-05-29T00:26:56;102370.28;;;17.01;57.37
49813;BME280;35706;52.100;5.056;2023-05-29T00:27:57;102378.50;;;17.08;56.80
49813;BME280;35706;52.100;5.056;2023-05-29T00:28:57;102377.81;;;17.16;56.69
49813;BME280;35706;52.100;5.056;2023-05-29T00:29:58;102372.50;;;17.16;56.65
49813;BME280;35706;52.100;5.056;2023-05-29T00:30:58;102380.66;;;16.85;57.85
49813;BME280;35706;52.100;5.056;2023-05-29T00:31:59;102379.19;;;16.61;57.71
49813;BME280;35706;52.100;5.056;2023-05-29T00:32:59;102380.03;;;16.62;57.82
49813;BME280;35706;52.100;5.056;2023-05-29T00:34:00;102393.22;;;16.93;57.26
49813;BME280;35706;52.100;5.056;2023-05-29T00:35:00;102375.28;;;16.65;57.48
49813;BME280;35706;52.100;5.056;2023-05-29T00:36:00;102381.13;;;16.40;58.18
49813;BME280;35706;52.100;5.056;2023-05-29T00:37:01;102389.56;;;16.14;59.20
49813;BME280;35706;52.100;5.056;2023-05-29T00:38:01;102387.41;;;16.39;58.58
49813;BME280;35706;52.100;5.056;2023-05-29T00:39:06;102387.59;;;16.66;58.16
49813;BME280;35706;52.100;5.056;2023-05-29T00:40:07;102394.38;;;16.40;58.63
49813;BME280;35706;52.100;5.056;2023-05-29T00:41:12;102394.34;;;16.20;58.91
49813;BME280;35706;52.100;5.056;2023-05-29T00:42:12;102400.69;;;15.98;59.68
49813;BME280;35706;52.100;5.056;2023-05-29T00:43:13;102402.81;;;15.74;60.46
49813;BME280;35706;52.100;5.056;2023-05-29T00:44:13;102401.25;;;15.71;60.75
49813;BME280;35706;52.100;5.056;2023-05-29T00:45:14;102405.34;;;15.75;60.33
49813;BME280;35706;52.100;5.056;2023-05-29T00:46:15;102406.06;;;15.66;60.95
49813;BME280;35706;52.100;5.056;2023-05-29T00:47:16;102406.38;;;15.94;60.53
49813;BME280;35706;52.100;5.056;2023-05-29T00:48:16;102410.03;;;15.93;59.55
49813;BME280;35706;52.100;5.056;2023-05-29T00:49:17;102410.44;;;15.98;60.00
49813;BME280;35706;52.100;5.056;2023-05-29T00:50:20;102410.94;;;15.82;59.76
49813;BME280;35706;52.100;5.056;2023-05-29T00:51:21;102416.69;;;15.45;60.56
49813;BME280;35706;52.100;5.056;2023-05-29T00:52:24;102411.47;;;15.55;60.77
49813;BME280;35706;52.100;5.056;2023-05-29T00:53:25;102414.81;;;15.57;60.52
49813;BME280;35706;52.100;5.056;2023-05-29T00:54:26;102413.19;;;15.65;60.09
49813;BME280;35706;52.100;5.056;2023-05-29T00:55:29;102418.56;;;16.06;60.24
49813;BME280;35706;52.100;5.056;2023-05-29T00:56:30;102418.78;;;15.83;59.51
49813;BME280;35706;52.100;5.056;2023-05-29T00:57:31;102416.06;;;15.74;59.75
49813;BME280;35706;52.100;5.056;2023-05-29T00:58:31;102418.44;;;16.07;59.50
49813;BME280;35706;52.100;5.056;2023-05-29T00:59:33;102412.31;;;16.07;59.90
49813;BME280;35706;52.100;5.056;2023-05-29T01:00:34;102415.69;;;16.19;58.80
49813;BME280;35706;52.100;5.056;2023-05-29T01:01:36;102415.19;;;16.44;58.17
49813;BME280;35706;52.100;5.056;2023-05-29T01:02:37;102408.81;;;16.57;57.85
49813;BME280;35706;52.100;5.056;2023-05-29T01:03:38;102410.06;;;16.53;57.57
49813;BME280;35706;52.100;5.056;2023-05-29T01:04:39;102415.19;;;16.35;57.18
49813;BME280;35706;52.100;5.056;2023-05-29T01:05:40;102413.91;;;16.19;57.99
49813;BME280;35706;52.100;5.056;2023-05-29T01:06:40;102417.84;;;15.94;58.24
49813;BME280;35706;52.100;5.056;2023-05-29T01:07:42;102412.59;;;15.83;58.55
49813;BME280;35706;52.100;5.056;2023-05-29T01:08:42;102414.50;;;15.71;58.98
49813;BME280;35706;52.100;5.056;2023-05-29T01:09:42;102413.53;;;15.51;59.71
49813;BME280;35706;52.100;5.056;2023-05-29T01:10:43;102413.72;;;15.59;59.47
49813;BME280;35706;52.100;5.056;2023-05-29T01:13:03;102420.72;;;15.18;60.79
49813;BME280;35706;52.100;5.056;2023-05-29T01:14:08;102413.31;;;15.01;61.29
49813;BME280;35706;52.100;5.056;2023-05-29T01:15:18;102415.03;;;15.23;61.03
49813;BME280;35706;52.100;5.056;2023-05-29T01:16:38;102421.94;;;15.14;61.50
49813;BME280;35706;52.100;5.056;2023-05-29T01:18:07;102416.03;;;14.78;61.85
49813;BME280;35706;52.100;5.056;2023-05-29T01:20:42;102423.72;;;14.93;61.67
49813;BME280;35706;52.100;5.056;2023-05-29T01:22:12;102429.16;;;14.80;61.23
49813;BME280;35706;52.100;5.056;2023-05-29T01:23:20;102418.25;;;14.94;61.06
49813;BME280;35706;52.100;5.056;2023-05-29T01:24:32;102423.56;;;14.94;61.19
49813;BME280;35706;52.100;5.056;2023-05-29T01:25:50;102436.06;;;14.60;62.10
49813;BME280;35706;52.100;5.056;2023-05-29T01:26:55;102428.38;;;14.57;62.07
49813;BME280;35706;52.100;5.056;2023-05-29T01:28:01;102434.22;;;14.72;62.33
49813;BME280;35706;52.100;5.056;2023-05-29T01:29:07;102438.69;;;14.71;62.27
49813;BME280;35706;52.100;5.056;2023-05-29T01:30:08;102438.31;;;14.64;62.40
49813;BME280;35706;52.100;5.056;2023-05-29T01:31:10;102440.38;;;14.50;62.41
49813;BME280;35706;52.100;5.056;2023-05-29T01:32:12;102443.50;;;14.55;62.36
49813;BME280;35706;52.100;5.056;2023-05-29T01:33:13;102439.53;;;14.72;62.18
49813;BME280;35706;52.100;5.056;2023-05-29T01:34:13;102449.03;;;14.52;62.60
49813;BME280;35706;52.100;5.056;2023-05-29T01:35:13;102439.91;;;14.56;62.37
49813;BME280;35706;52.100;5.056;2023-05-29T01:36:14;102443.00;;;14.72;62.17
49813;BME280;35706;52.100;5.056;2023-05-29T01:37:14;102438.22;;;14.66;62.13
49813;BME280;35706;52.100;5.056;2023-05-29T01:38:15;102441.91;;;14.86;61.65
49813;BME280;35706;52.100;5.056;2023-05-29T01:39:15;102437.50;;;14.96;61.49
49813;BME280;35706;52.100;5.056;2023-05-29T01:40:16;102438.59;;;14.94;61.39
49813;BME280;35706;52.100;5.056;2023-05-29T01:41:17;102444.09;;;14.70;61.81
49813;BME280;35706;52.100;5.056;2023-05-29T01:42:18;102444.97;;;14.59;62.46
49813;BME280;35706;52.100;5.056;2023-05-29T01:43:19;102451.56;;;14.76;61.85
49813;BME280;35706;52.100;5.056;2023-05-29T01:44:20;102450.00;;;14.62;62.24
49813;BME280;35706;52.100;5.056;2023-05-29T01:45:20;102440.88;;;14.43;62.77
49813;BME280;35706;52.100;5.056;2023-05-29T01:46:21;102446.16;;;14.55;62.83
49813;BME280;35706;52.100;5.056;2023-05-29T01:47:26;102449.28;;;14.49;62.84
49813;BME280;35706;52.100;5.056;2023-05-29T01:48:27;102444.94;;;14.70;62.88
49813;BME280;35706;52.100;5.056;2023-05-29T01:49:28;102449.31;;;14.37;62.80
49813;BME280;35706;52.100;5.056;2023-05-29T01:50:30;102446.41;;;14.40;62.88
49813;BME280;35706;52.100;5.056;2023-05-29T01:51:31;102454.72;;;14.58;62.65
49813;BME280;35706;52.100;5.056;2023-05-29T01:52:34;102444.72;;;14.62;62.53
49813;BME280;35706;52.100;5.056;2023-05-29T01:53:35;102447.84;;;14.56;62.68
49813;BME280;35706;52.100;5.056;2023-05-29T01:54:35;102449.28;;;14.60;62.54
49813;BME280;35706;52.100;5.056;2023-05-29T01:55:36;102451.69;;;14.40;63.04
49813;BME280;35706;52.100;5.056;2023-05-29T01:56:36;102448.19;;;14.62;62.71
49813;BME280;35706;52.100;5.056;2023-05-29T01:57:37;102455.53;;;14.70;62.13
49813;BME280;35706;52.100;5.056;2023-05-29T01:58:39;102446.63;;;14.60;62.31
49813;BME280;35706;52.100;5.056;2023-05-29T01:59:40;102457.09;;;14.50;62.73
49813;BME280;35706;52.100;5.056;2023-05-29T02:00:41;102455.78;;;14.67;62.59
49813;BME280;35706;52.100;5.056;2023-05-29T02:01:42;102454.31;;;14.74;62.05
49813;BME280;35706;52.100;5.056;2023-05-29T02:02:42;102461.38;;;14.85;62.44
49813;BME280;35706;52.100;5.056;2023-05-29T02:03:42;102458.78;;;14.74;62.07
49813;BME280;35706;52.100;5.056;2023-05-29T02:04:43;102461.81;;;14.69;62.43
49813;BME280;35706;52.100;5.056;2023-05-29T02:05:43;102466.00;;;14.72;62.69
49813;BME280;35706;52.100;5.056;2023-05-29T02:06:43;102457.06;;;14.73;62.23
49813;BME280;35706;52.100;5.056;2023-05-29T02:07:44;102467.53;;;14.52;62.97
49813;BME280;35706;52.100;5.056;2023-05-29T02:08:44;102465.78;;;14.63;62.46
49813;BME280;35706;52.100;5.056;2023-05-29T02:09:45;102469.97;;;14.21;63.90
49813;BME280;35706;52.100;5.056;2023-05-29T02:10:45;102468.91;;;14.46;63.83
49813;BME280;35706;52.100;5.056;2023-05-29T02:11:45;102465.53;;;14.21;63.88
49813;BME280;35706;52.100;5.056;2023-05-29T02:12:46;102461.44;;;14.40;63.13
49813;BME280;35706;52.100;5.056;2023-05-29T02:13:46;102464.31;;;14.25;64.18
49813;BME280;35706;52.100;5.056;2023-05-29T02:14:46;102468.06;;;14.23;63.86
49813;BME280;35706;52.100;5.056;2023-05-29T02:15:47;102463.09;;;14.41;63.64
49813;BME280;35706;52.100;5.056;2023-05-29T02:16:47;102459.38;;;14.55;63.54
49813;BME280;35706;52.100;5.056;2023-05-29T02:17:49;102463.94;;;14.53;63.14
49813;BME280;35706;52.100;5.056;2023-05-29T02:18:50;102465.03;;;14.61;63.32
49813;BME280;35706;52.100;5.056;2023-05-29T02:19:51;102462.66;;;14.36;63.17
49813;BME280;35706;52.100;5.056;2023-05-29T02:20:52;102456.63;;;14.11;64.33
49813;BME280;35706;52.100;5.056;2023-05-29T02:21:53;102458.31;;;14.35;63.83
49813;BME280;35706;52.100;5.056;2023-05-29T02:22:53;102449.88;;;14.41;64.13
49813;BME280;35706;52.100;5.056;2023-05-29T02:23:53;102450.00;;;14.51;63.40
49813;BME280;35706;52.100;5.056;2023-05-29T02:24:54;102435.22;;;14.37;64.05
49813;BME280;35706;52.100;5.056;2023-05-29T02:25:54;102447.59;;;14.14;64.19
49813;BME280;35706;52.100;5.056;2023-05-29T02:26:54;102450.63;;;13.98;64.86
49813;BME280;35706;52.100;5.056;2023-05-29T02:27:55;102455.03;;;13.86;65.23
49813;BME280;35706;52.100;5.056;2023-05-29T02:28:55;102452.53;;;13.96;65.32
49813;BME280;35706;52.100;5.056;2023-05-29T02:29:56;102457.59;;;14.10;64.57
49813;BME280;35706;52.100;5.056;2023-05-29T02:30:56;102456.16;;;14.17;64.83
49813;BME280;35706;52.100;5.056;2023-05-29T02:31:56;102459.78;;;14.16;64.72
49813;BME280;35706;52.100;5.056;2023-05-29T02:32:57;102454.72;;;14.13;64.55
49813;BME280;35706;52.100;5.056;2023-05-29T02:33:57;102455.03;;;13.86;65.64
49813;BME280;35706;52.100;5.056;2023-05-29T02:34:57;102456.38;;;13.92;65.62
49813;BME280;35706;52.100;5.056;2023-05-29T02:35:58;102449.53;;;14.12;65.20
49813;BME280;35706;52.100;5.056;2023-05-29T02:36:58;102461.31;;;14.19;64.84
49813;BME280;35706;52.100;5.056;2023-05-29T02:37:58;102454.59;;;14.15;64.70
49813;BME280;35706;52.100;5.056;2023-05-29T02:38:59;102453.00;;;14.01;64.99
49813;BME280;35706;52.100;5.056;2023-05-29T02:39:59;102455.44;;;14.04;64.98
49813;BME280;35706;52.100;5.056;2023-05-29T02:40:59;102451.09;;;14.03;65.17
49813;BME280;35706;52.100;5.056;2023-05-29T02:42:00;102455.75;;;13.88;65.76
49813;BME280;35706;52.100;5.056;2023-05-29T02:43:00;102455.41;;;13.81;66.07
49813;BME280;35706;52.100;5.056;2023-05-29T02:44:00;102454.22;;;13.97;65.63
49813;BME280;35706;52.100;5.056;2023-05-29T02:45:01;102454.47;;;13.94;65.11
49813;BME280;35706;52.100;5.056;2023-05-29T02:46:01;102461.09;;;13.99;65.27
49813;BME280;35706;52.100;5.056;2023-05-29T02:47:01;102458.81;;;14.06;64.91
49813;BME280;35706;52.100;5.056;2023-05-29T02:48:02;102455.31;;;14.17;64.83
49813;BME280;35706;52.100;5.056;2023-05-29T02:49:03;102450.88;;;14.06;64.92
49813;BME280;35706;52.100;5.056;2023-05-29T02:50:04;102452.91;;;14.02;65.08
49813;BME280;35706;52.100;5.056;2023-05-29T02:51:05;102464.09;;;14.17;64.75
49813;BME280;35706;52.100;5.056;2023-05-29T02:52:05;102464.31;;;14.25;64.68
49813;BME280;35706;52.100;5.056;2023-05-29T02:53:06;102459.75;;;14.28;64.50
49813;BME280;35706;52.100;5.056;2023-05-29T02:54:06;102469.38;;;14.29;64.27
49813;BME280;35706;52.100;5.056;2023-05-29T02:55:06;102462.41;;;14.16;64.39
49813;BME280;35706;52.100;5.056;2023-05-29T02:56:07;102463.38;;;14.04;64.91
49813;BME280;35706;52.100;5.056;2023-05-29T02:57:09;102460.09;;;14.00;65.20
49813;BME280;35706;52.100;5.056;2023-05-29T02:58:09;102450.63;;;13.98;64.94
49813;BME280;35706;52.100;5.056;2023-05-29T02:59:11;102457.94;;;13.94;65.62
49813;BME280;35706;52.100;5.056;2023-05-29T03:00:12;102461.09;;;13.99;65.34
49813;BME280;35706;52.100;5.056;2023-05-29T03:01:13;102461.19;;;13.98;65.63
49813;BME280;35706;52.100;5.056;2023-05-29T03:02:13;102463.84;;;14.09;65.11
49813;BME280;35706;52.100;5.056;2023-05-29T03:03:14;102460.47;;;14.07;65.12
49813;BME280;35706;52.100;5.056;2023-05-29T03:04:14;102458.56;;;14.09;65.02
49813;BME280;35706;52.100;5.056;2023-05-29T03:05:15;102461.91;;;13.89;65.44
49813;BME280;35706;52.100;5.056;2023-05-29T03:06:16;102459.50;;;13.97;65.33
49813;BME280;35706;52.100;5.056;2023-05-29T03:07:17;102464.03;;;13.61;66.02
49813;BME280;35706;52.100;5.056;2023-05-29T03:08:18;102464.31;;;13.80;65.88
49813;BME280;35706;52.100;5.056;2023-05-29T03:09:19;102462.03;;;13.76;66.05
49813;BME280;35706;52.100;5.056;2023-05-29T03:10:19;102467.63;;;13.71;65.81
49813;BME280;35706;52.100;5.056;2023-05-29T03:11:20;102476.16;;;13.63;66.35
49813;BME280;35706;52.100;5.056;2023-05-29T03:12:23;102473.25;;;13.55;66.79
49813;BME280;35706;52.100;5.056;2023-05-29T03:13:23;102474.63;;;13.72;66.29
49813;BME280;35706;52.100;5.056;2023-05-29T03:14:24;102469.69;;;13.79;65.61
49813;BME280;35706;52.100;5.056;2023-05-29T03:15:24;102470.06;;;13.85;65.47
49813;BME280;35706;52.100;5.056;2023-05-29T03:16:24;102467.78;;;13.34;67.11
49813;BME280;35706;52.100;5.056;2023-05-29T03:17:25;102468.91;;;13.54;66.64
49813;BME280;35706;52.100;5.056;2023-05-29T03:18:25;102460.69;;;13.70;65.77
49813;BME280;35706;52.100;5.056;2023-05-29T03:19:26;102459.22;;;13.55;65.89
49813;BME280;35706;52.100;5.056;2023-05-29T03:20:26;102466.72;;;13.48;66.56
49813;BME280;35706;52.100;5.056;2023-05-29T03:21:28;102461.13;;;13.53;66.67
49813;BME280;35706;52.100;5.056;2023-05-29T03:22:28;102459.69;;;13.60;66.10
49813;BME280;35706;52.100;5.056;2023-05-29T03:23:28;102462.16;;;13.39;66.66
49813;BME280;35706;52.100;5.056;2023-05-29T03:24:29;102459.34;;;13.64;65.88
49813;BME280;35706;52.100;5.056;2023-05-29T03:25:29;102462.56;;;13.57;65.65
49813;BME280;35706;52.100;5.056;2023-05-29T03:26:29;102463.22;;;13.36;66.42
49813;BME280;35706;52.100;5.056;2023-05-29T03:27:30;102463.41;;;13.57;66.08
49813;BME280;35706;52.100;5.056;2023-05-29T03:28:31;102465.75;;;13.38;66.59
49813;BME280;35706;52.100;5.056;2023-05-29T03:29:32;102453.31;;;13.27;66.82
49813;BME280;35706;52.100;5.056;2023-05-29T03:30:32;102451.22;;;13.43;66.39
49813;BME280;35706;52.100;5.056;2023-05-29T03:31:32;102451.28;;;13.55;65.89
49813;BME280;35706;52.100;5.056;2023-05-29T03:32:33;102454.03;;;13.64;65.66
49813;BME280;35706;52.100;5.056;2023-05-29T03:33:34;102453.66;;;13.47;66.18
49813;BME280;35706;52.100;5.056;2023-05-29T03:34:34;102454.03;;;13.64;65.55
49813;BME280;35706;52.100;5.056;2023-05-29T03:35:35;102465.09;;;13.58;65.72
49813;BME280;35706;52.100;5.056;2023-05-29T03:36:35;102463.75;;;13.53;65.89
49813;BME280;35706;52.100;5.056;2023-05-29T03:37:38;102468.53;;;13.48;66.21
49813;BME280;35706;52.100;5.056;2023-05-29T03:38:39;102463.50;;;13.44;65.99
49813;BME280;35706;52.100;5.056;2023-05-29T03:39:39;102462.31;;;13.49;66.00
49813;BME280;35706;52.100;5.056;2023-05-29T03:40:40;102468.59;;;13.59;65.38
49813;BME280;35706;52.100;5.056;2023-05-29T03:41:40;102469.44;;;13.35;66.14
49813;BME280;35706;52.100;5.056;2023-05-29T03:42:40;102468.41;;;13.38;66.28
49813;BME280;35706;52.100;5.056;2023-05-29T03:43:41;102468.53;;;13.48;66.08
49813;BME280;35706;52.100;5.056;2023-05-29T03:44:41;102469.63;;;13.56;65.76
49813;BME280;35706;52.100;5.056;2023-05-29T03:45:42;102474.53;;;13.50;65.61
49813;BME280;35706;52.100;5.056;2023-05-29T03:46:42;102468.44;;;13.49;66.03
49813;BME280;35706;52.100;5.056;2023-05-29T03:47:42;102469.78;;;13.66;65.27
49813;BME280;35706;52.100;5.056;2023-05-29T03:48:43;102462.59;;;13.68;65.02
49813;BME280;35706;52.100;5.056;2023-05-29T03:49:43;102472.06;;;13.59;65.28
49813;BME280;35706;52.100;5.056;2023-05-29T03:50:45;102474.91;;;13.56;65.39
49813;BME280;35706;52.100;5.056;2023-05-29T03:51:46;102470.97;;;13.51;65.53
49813;BME280;35706;52.100;5.056;2023-05-29T03:52:46;102476.50;;;13.59;65.06
49813;BME280;35706;52.100;5.056;2023-05-29T03:53:46;102476.00;;;13.54;65.50
49813;BME280;35706;52.100;5.056;2023-05-29T03:54:47;102474.44;;;13.51;65.28
49813;BME280;35706;52.100;5.056;2023-05-29T03:55:47;102468.00;;;13.31;65.94
49813;BME280;35706;52.100;5.056;2023-05-29T03:56:47;102470.53;;;13.33;66.35
49813;BME280;35706;52.100;5.056;2023-05-29T03:57:48;102468.44;;;13.49;65.70
49813;BME280;35706;52.100;5.056;2023-05-29T03:58:48;102474.59;;;13.61;65.63
49813;BME280;35706;52.100;5.056;2023-05-29T03:59:48;102477.28;;;13.48;65.47
49813;BME280;35706;52.100;5.056;2023-05-29T04:00:48;102476.81;;;13.43;65.74
49813;BME280;35706;52.100;5.056;2023-05-29T04:01:49;102474.75;;;13.22;66.00
49813;BME280;35706;52.100;5.056;2023-05-29T04:02:49;102476.38;;;13.25;66.53
49813;BME280;35706;52.100;5.056;2023-05-29T04:03:50;102470.94;;;13.27;66.22
49813;BME280;35706;52.100;5.056;2023-05-29T04:04:50;102468.31;;;13.27;66.07
49813;BME280;35706;52.100;5.056;2023-05-29T04:05:50;102473.94;;;13.22;66.65
49813;BME280;35706;52.100;5.056;2023-05-29T04:06:51;102472.53;;;13.29;66.48
49813;BME280;35706;52.100;5.056;2023-05-29T04:07:52;102477.66;;;13.43;66.07
49813;BME280;35706;52.100;5.056;2023-05-29T04:08:52;102480.88;;;13.36;65.76
49813;BME280;35706;52.100;5.056;2023-05-29T04:09:52;102477.94;;;13.28;66.12
49813;BME280;35706;52.100;5.056;2023-05-29T04:10:52;102476.22;;;13.27;66.18
49813;BME280;35706;52.100;5.056;2023-05-29T04:11:56;102480.66;;;13.26;66.09
49813;BME280;35706;52.100;5.056;2023-05-29T04:12:56;102478.09;;;13.37;65.67
49813;BME280;35706;52.100;5.056;2023-05-29T04:13:57;102481.53;;;13.51;65.68
49813;BME280;35706;52.100;5.056;2023-05-29T04:14:57;102484.38;;;13.48;65.47
49813;BME280;35706;52.100;5.056;2023-05-29T04:15:57;102479.00;;;13.25;65.73
49813;BME280;35706;52.100;5.056;2023-05-29T04:16:58;102488.69;;;13.24;66.34
49813;BME280;35706;52.100;5.056;2023-05-29T04:17:59;102487.66;;;13.27;66.12
49813;BME280;35706;52.100;5.056;2023-05-29T04:18:59;102484.47;;;13.35;65.98
49813;BME280;35706;52.100;5.056;2023-05-29T04:20:00;102487.09;;;13.35;65.75
49813;BME280;35706;52.100;5.056;2023-05-29T04:21:06;102485.22;;;13.48;65.42
49813;BME280;35706;52.100;5.056;2023-05-29T04:22:06;102490.28;;;13.27;66.00
49813;BME280;35706;52.100;5.056;2023-05-29T04:23:07;102487.34;;;13.32;65.93
49813;BME280;35706;52.100;5.056;2023-05-29T04:24:07;102494.28;;;13.09;66.25
49813;BME280;35706;52.100;5.056;2023-05-29T04:25:08;102495.00;;;13.11;66.53
49813;BME280;35706;52.100;5.056;2023-05-29T04:26:08;102498.94;;;13.05;66.56
49813;BME280;35706;52.100;5.056;2023-05-29T04:27:09;102492.91;;;13.03;66.66
49813;BME280;35706;52.100;5.056;2023-05-29T04:28:13;102496.81;;;13.10;66.66
49813;BME280;35706;52.100;5.056;2023-05-29T04:29:13;102495.16;;;13.20;65.98
49813;BME280;35706;52.100;5.056;2023-05-29T04:30:15;102487.75;;;13.26;66.20
49813;BME280;35706;52.100;5.056;2023-05-29T04:31:15;102491.47;;;13.23;65.82
49813;BME280;35706;52.100;5.056;2023-05-29T04:32:16;102493.13;;;13.37;65.83
49813;BME280;35706;52.100;5.056;2023-05-29T04:33:17;102492.38;;;13.35;66.12
49813;BME280;35706;52.100;5.056;2023-05-29T04:34:18;102499.75;;;13.42;65.57
49813;BME280;35706;52.100;5.056;2023-05-29T04:35:20;102493.66;;;13.29;66.11
49813;BME280;35706;52.100;5.056;2023-05-29T04:36:24;102491.34;;;13.24;66.32
49813;BME280;35706;52.100;5.056;2023-05-29T04:37:31;102498.66;;;13.21;66.40
49813;BME280;35706;52.100;5.056;2023-05-29T04:38:37;102495.28;;;13.19;66.34
49813;BME280;35706;52.100;5.056;2023-05-29T04:39:37;102494.56;;;13.17;66.35
49813;BME280;35706;52.100;5.056;2023-05-29T04:40:37;102496.38;;;13.40;65.78
49813;BME280;35706;52.100;5.056;2023-05-29T04:41:39;102496.66;;;13.49;65.52
49813;BME280;35706;52.100;5.056;2023-05-29T04:42:40;102499.75;;;13.42;65.50
49813;BME280;35706;52.100;5.056;2023-05-29T04:43:40;102504.31;;;13.40;65.62
49813;BME280;35706;52.100;5.056;2023-05-29T04:44:41;102502.84;;;13.36;65.53
49813;BME280;35706;52.100;5.056;2023-05-29T04:45:43;102513.44;;;13.23;66.11
49813;BME280;35706;52.100;5.056;2023-05-29T04:46:44;102516.13;;;13.11;66.32
49813;BME280;35706;52.100;5.056;2023-05-29T04:47:44;102507.59;;;13.31;66.09
49813;BME280;35706;52.100;5.056;2023-05-29T04:48:44;102507.44;;;13.46;65.70
49813;BME280;35706;52.100;5.056;2023-05-29T04:49:45;102508.78;;;13.27;65.60
49813;BME280;35706;52.100;5.056;2023-05-29T04:50:49;102510.25;;;13.31;65.46
49813;BME280;35706;52.100;5.056;2023-05-29T04:51:49;102513.31;;;13.38;65.20
49813;BME280;35706;52.100;5.056;2023-05-29T04:52:52;102515.66;;;13.30;65.62
49813;BME280;35706;52.100;5.056;2023-05-29T04:53:53;102513.22;;;13.51;65.35
49813;BME280;35706;52.100;5.056;2023-05-29T04:54:56;102508.94;;;13.61;64.80
49813;BME280;35706;52.100;5.056;2023-05-29T04:55:56;102515.91;;;13.62;64.55
49813;BME280;35706;52.100;5.056;2023-05-29T04:56:57;102517.56;;;13.63;64.76
49813;BME280;35706;52.100;5.056;2023-05-29T04:57:57;102511.97;;;13.43;64.99
49813;BME280;35706;52.100;5.056;2023-05-29T04:58:57;102516.78;;;13.38;65.39
49813;BME280;35706;52.100;5.056;2023-05-29T04:59:58;102513.50;;;13.35;65.33
49813;BME280;35706;52.100;5.056;2023-05-29T05:00:58;102517.41;;;13.42;65.32
49813;BME280;35706;52.100;5.056;2023-05-29T05:01:59;102513.41;;;13.36;65.55
49813;BME280;35706;52.100;5.056;2023-05-29T05:02:59;102520.94;;;13.30;65.40
49813;BME280;35706;52.100;5.056;2023-05-29T05:04:00;102507.28;;;13.36;65.23
49813;BME280;35706;52.100;5.056;2023-05-29T05:05:00;102512.44;;;13.37;64.94
49813;BME280;35706;52.100;5.056;2023-05-29T05:06:01;102509.72;;;13.26;65.57
49813;BME280;35706;52.100;5.056;2023-05-29T05:07:04;102516.31;;;13.44;65.22
49813;BME280;35706;52.100;5.056;2023-05-29T05:08:05;102509.97;;;13.47;65.28
49813;BME280;35706;52.100;5.056;2023-05-29T05:09:05;102513.00;;;13.54;64.73
49813;BME280;35706;52.100;5.056;2023-05-29T05:10:07;102514.22;;;13.61;64.53
49813;BME280;35706;52.100;5.056;2023-05-29T05:11:07;102513.38;;;13.60;64.44
49813;BME280;35706;52.100;5.056;2023-05-29T05:12:08;102512.41;;;13.61;64.50
49813;BME280;35706;52.100;5.056;2023-05-29T05:13:08;102518.34;;;13.76;64.28
49813;BME280;35706;52.100;5.056;2023-05-29T05:14:09;102522.38;;;13.58;64.42
49813;BME280;35706;52.100;5.056;2023-05-29T05:15:09;102515.53;;;13.67;64.52
49813;BME280;35706;52.100;5.056;2023-05-29T05:16:10;102513.50;;;13.59;64.55
49813;BME280;35706;52.100;5.056;2023-05-29T05:17:10;102522.38;;;13.58;64.45
49813;BME280;35706;52.100;5.056;2023-05-29T05:18:10;102516.66;;;13.40;64.60
49813;BME280;35706;52.100;5.056;2023-05-29T05:19:11;102513.03;;;13.30;65.05
49813;BME280;35706;52.100;5.056;2023-05-29T05:20:11;102509.50;;;13.29;65.38
49813;BME280;35706;52.100;5.056;2023-05-29T05:21:12;102513.91;;;13.41;65.10
49813;BME280;35706;52.100;5.056;2023-05-29T05:22:12;102517.22;;;13.32;65.27
49813;BME280;35706;52.100;5.056;2023-05-29T05:23:12;102511.94;;;13.32;65.49